createdAt,value
2023-01-10T15:03:27.883Z,0
2023-01-10T15:04:36.351Z,0
2023-01-10T15:05:44.552Z,0
2023-01-10T15:06:53.111Z,12.5
2023-01-10T15:08:01.475Z,12.5
2023-01-10T15:09:09.807Z,12.5
2023-01-10T15:10:18.378Z,7
2023-01-10T15:11:26.742Z,7
2023-01-10T15:12:35.115Z,7
2023-01-10T15:13:43.664Z,10.2
2023-01-10T15:14:52.026Z,10.2
2023-01-10T15:16:00.385Z,10.2
2023-01-10T15:17:08.894Z,11.3
2023-01-10T15:18:17.257Z,11.3
2023-01-10T15:19:25.619Z,11.3
2023-01-10T15:20:34.173Z,8.4
2023-01-10T15:21:42.493Z,8.4
2023-01-10T15:22:50.852Z,8.4
2023-01-10T15:23:59.420Z,11.9
2023-01-10T15:25:07.765Z,11.9
2023-01-10T15:26:16.120Z,11.9
2023-01-10T15:27:24.689Z,10.6
2023-01-10T15:28:33.047Z,10.6
2023-01-10T15:29:43.694Z,10.6
2023-01-10T15:30:49.947Z,13
2023-01-10T15:31:58.294Z,13
2023-01-10T15:33:06.634Z,13
2023-01-10T15:34:15.192Z,10.2
2023-01-10T15:35:27.280Z,10.2
2023-01-10T15:36:31.908Z,10.2
2023-01-10T15:37:40.452Z,9.5
2023-01-10T15:38:48.821Z,9.5
2023-01-10T15:39:57.157Z,9.5
2023-01-10T15:41:05.717Z,10.7
2023-01-10T15:42:14.072Z,10.7
2023-01-10T15:43:23.626Z,10.7
2023-01-10T15:44:30.975Z,10
2023-01-10T15:45:39.329Z,10
2023-01-10T15:46:47.733Z,10
2023-01-10T15:47:56.240Z,19.1
2023-01-10T15:49:04.585Z,19.1
2023-01-10T15:50:12.959Z,19.1
2023-01-10T15:51:21.583Z,11.8
2023-01-10T15:52:29.864Z,11.8
2023-01-10T15:53:38.216Z,11.8
2023-01-10T15:54:46.766Z,19.200001
2023-01-10T15:55:55.123Z,19.200001
2023-01-10T15:57:03.492Z,19.200001
2023-01-10T15:58:12.022Z,16.9
2023-01-10T15:59:20.427Z,16.9
2023-01-10T16:00:28.858Z,16.9
2023-01-10T16:01:37.637Z,14.3
2023-01-10T16:02:46.141Z,14.3
2023-01-10T16:03:54.503Z,14.3
2023-01-10T16:05:03.043Z,11.6
2023-01-10T16:06:11.382Z,11.6
2023-01-10T16:07:19.805Z,11.6
2023-01-10T16:08:28.430Z,9.1
2023-01-10T16:09:36.783Z,9.1
2023-01-10T16:10:45.161Z,9.1
2023-01-10T16:11:53.721Z,20.4
2023-01-10T16:13:02.101Z,20.4
2023-01-10T16:14:10.460Z,20.4
2023-01-10T16:15:19.077Z,12.7
2023-01-10T16:16:27.509Z,12.7
2023-01-10T16:17:35.827Z,12.7
2023-01-10T16:18:44.371Z,12.4
2023-01-10T16:19:52.761Z,12.4
2023-01-10T16:21:01.126Z,12.4
2023-01-10T16:22:09.728Z,9.4
2023-01-10T16:23:18.129Z,9.4
2023-01-10T16:24:26.444Z,9.4
2023-01-10T16:25:35.011Z,11.2
2023-01-10T16:26:43.350Z,11.2
2023-01-10T16:27:51.747Z,11.2
2023-01-10T16:29:00.314Z,11
2023-01-10T16:30:08.722Z,11
2023-01-10T16:31:17.208Z,11
2023-01-10T16:32:25.838Z,12.1
2023-01-10T16:33:34.221Z,12.1
2023-01-10T16:34:42.589Z,12.1
2023-01-10T16:35:51.124Z,9.1
2023-01-10T16:36:59.482Z,9.1
2023-01-10T16:38:07.842Z,9.1
2023-01-10T16:39:16.431Z,18.1
2023-01-10T16:40:24.766Z,18.1
2023-01-10T16:41:33.106Z,18.1
2023-01-10T16:42:41.680Z,18.200001
2023-01-10T16:43:50.048Z,18.200001
2023-01-10T16:44:58.358Z,18.200001
2023-01-10T16:46:07.034Z,22
2023-01-10T16:47:15.360Z,22
2023-01-10T16:48:23.730Z,22
2023-01-10T16:49:32.281Z,12.1
2023-01-10T16:50:40.642Z,12.1
2023-01-10T16:51:49.004Z,12.1
2023-01-10T16:52:57.566Z,9.8
2023-01-10T16:54:05.918Z,9.8
2023-01-10T16:55:14.313Z,9.8
2023-01-10T16:56:22.848Z,13
2023-01-10T16:57:31.220Z,13
2023-01-10T16:58:39.611Z,13
2023-01-10T16:59:48.190Z,18.5
2023-01-10T17:00:56.610Z,18.5
2023-01-10T17:02:05.025Z,18.5
2023-01-10T17:03:13.611Z,15.7
2023-01-10T17:04:22.044Z,15.7
2023-01-10T17:05:30.324Z,15.7
2023-01-10T17:06:38.882Z,12.2
2023-01-10T17:07:47.276Z,12.2
2023-01-10T17:08:56.369Z,12.2
2023-01-10T17:10:04.932Z,12.5
2023-01-10T17:11:13.314Z,12.5
2023-01-10T17:12:21.656Z,12.5
2023-01-10T17:13:30.292Z,108.3
2023-01-10T17:14:38.737Z,108.3
2023-01-10T17:15:47.111Z,108.3
2023-01-10T17:16:55.647Z,24.1
2023-01-10T17:18:04.970Z,24.1
2023-01-10T17:19:13.382Z,24.1
2023-01-10T17:20:22.008Z,17.700001
2023-01-10T17:21:30.444Z,17.700001
2023-01-10T17:22:38.838Z,17.700001
2023-01-10T17:23:50.399Z,18.6
2023-01-10T17:24:58.778Z,18.6
2023-01-10T17:26:07.137Z,18.6
2023-01-10T17:27:15.734Z,8.9
2023-01-10T17:28:24.105Z,8.9
2023-01-10T17:29:32.497Z,8.9
2023-01-10T17:30:41.055Z,11
2023-01-10T17:31:49.449Z,11
2023-01-10T17:32:57.797Z,11
2023-01-10T17:34:06.365Z,11.3
2023-01-10T17:35:14.720Z,11.3
2023-01-10T17:36:23.066Z,11.3
2023-01-10T17:37:31.634Z,13.5
2023-01-10T17:38:40.046Z,13.5
2023-01-10T17:39:48.360Z,13.5
2023-01-10T17:40:57.277Z,15.5
2023-01-10T17:42:05.629Z,15.5
2023-01-10T17:43:14.021Z,15.5
2023-01-10T17:44:22.568Z,12.4
2023-01-10T17:45:30.958Z,12.4
2023-01-10T17:46:39.275Z,12.4
2023-01-10T17:47:47.859Z,12.9
2023-01-10T17:48:56.243Z,12.9
2023-01-10T17:50:04.624Z,12.9
2023-01-10T17:51:13.237Z,12.2
2023-01-10T17:52:21.546Z,12.2
2023-01-10T17:53:29.929Z,12.2
2023-01-10T17:54:38.477Z,14.5
2023-01-10T17:55:46.844Z,14.5
2023-01-10T17:56:55.279Z,14.5
2023-01-10T17:58:03.916Z,13.7
2023-01-10T17:59:12.274Z,13.7
2023-01-10T18:00:20.665Z,13.7
2023-01-10T18:01:29.331Z,12.2
2023-01-10T18:02:37.773Z,12.2
2023-01-10T18:03:45.999Z,12.2
2023-01-10T18:04:54.558Z,13.1
2023-01-10T18:06:05.507Z,13.1
2023-01-10T18:07:12.998Z,13.1
2023-01-10T18:08:19.938Z,11.1
2023-01-10T18:09:28.311Z,11.1
2023-01-10T18:10:36.665Z,11.1
2023-01-10T18:11:45.217Z,14
2023-01-10T18:12:53.560Z,14
2023-01-10T18:14:01.915Z,14
2023-01-10T18:15:10.504Z,10.4
2023-01-10T18:16:18.876Z,10.4
2023-01-10T18:17:27.173Z,10.4
2023-01-10T18:18:35.751Z,14.4
2023-01-10T18:19:44.114Z,14.4
2023-01-10T18:20:52.537Z,14.4
2023-01-10T18:22:01.115Z,11.9
2023-01-10T18:23:09.459Z,11.9
2023-01-10T18:24:17.792Z,11.9
2023-01-10T18:25:26.357Z,10.6
2023-01-10T18:26:34.688Z,10.6
2023-01-10T18:27:43.059Z,10.6
2023-01-10T18:28:51.607Z,12.6
2023-01-10T18:29:59.949Z,12.6
2023-01-10T18:31:08.402Z,12.6
2023-01-10T18:32:16.853Z,10.9
2023-01-10T18:33:25.222Z,10.9
2023-01-10T18:34:33.578Z,10.9
2023-01-10T18:35:42.138Z,14
2023-01-10T18:36:50.480Z,14
2023-01-10T18:37:58.855Z,14
2023-01-10T18:39:07.410Z,13.5
2023-01-10T18:40:15.745Z,13.5
2023-01-10T18:41:24.079Z,13.5
2023-01-10T18:42:32.636Z,12.9
2023-01-10T18:43:41.000Z,12.9
2023-01-10T18:44:49.325Z,12.9
2023-01-10T18:45:57.891Z,12.7
2023-01-10T18:47:06.256Z,12.7
2023-01-10T18:48:14.584Z,12.7
2023-01-10T18:49:23.136Z,12.6
2023-01-10T18:50:31.483Z,12.6
2023-01-10T18:51:39.844Z,12.6
2023-01-10T18:52:48.415Z,11.9
2023-01-10T18:53:56.735Z,11.9
2023-01-10T18:55:05.090Z,11.9
2023-01-10T18:56:13.638Z,11.5
2023-01-10T18:57:21.986Z,11.5
2023-01-10T18:58:30.336Z,11.5
2023-01-10T18:59:38.896Z,14.3
2023-01-10T19:00:47.243Z,14.3
2023-01-10T19:01:55.639Z,14.3
2023-01-10T19:03:04.192Z,10.7
2023-01-10T19:04:12.500Z,10.7
2023-01-10T19:05:20.835Z,10.7
2023-01-10T19:06:29.413Z,9.5
2023-01-10T19:07:37.761Z,9.5
2023-01-10T19:08:46.109Z,9.5
2023-01-10T19:09:54.668Z,10.8
2023-01-10T19:11:13.252Z,10.8
2023-01-10T19:12:11.373Z,10.8
2023-01-10T19:13:19.925Z,15.8
2023-01-10T19:14:28.274Z,15.8
2023-01-10T19:15:36.623Z,15.8
2023-01-10T19:16:45.158Z,15
2023-01-10T19:17:53.549Z,15
2023-01-10T19:19:01.930Z,15
2023-01-10T19:20:10.436Z,12.8
2023-01-10T19:21:18.780Z,12.8
2023-01-10T19:22:27.122Z,12.8
2023-01-10T19:23:35.702Z,7.8
2023-01-10T19:24:44.062Z,7.8
2023-01-10T19:25:52.395Z,7.8
2023-01-10T19:27:00.965Z,13
2023-01-10T19:28:09.315Z,13
2023-01-10T19:29:17.642Z,13
2023-01-10T19:30:26.199Z,10.2
2023-01-10T19:31:34.564Z,10.2
2023-01-10T19:32:42.924Z,10.2
2023-01-10T19:33:51.488Z,12.2
2023-01-10T19:34:59.848Z,12.2
2023-01-10T19:36:08.192Z,12.2
2023-01-10T19:37:16.728Z,14.6
2023-01-10T19:38:25.083Z,14.6
2023-01-10T19:39:33.459Z,14.6
2023-01-10T19:40:42.022Z,12.2
2023-01-10T19:41:50.359Z,12.2
2023-01-10T19:42:58.714Z,12.2
2023-01-10T19:44:07.293Z,11.6
2023-01-10T19:45:15.655Z,11.6
2023-01-10T19:46:24.112Z,11.6
2023-01-10T19:47:32.584Z,10.9
2023-01-10T19:48:40.953Z,10.9
2023-01-10T19:49:49.315Z,10.9
2023-01-10T19:50:57.896Z,8.8
2023-01-10T19:52:06.221Z,8.8
2023-01-10T19:53:14.567Z,8.8
2023-01-10T19:54:23.150Z,9.6
2023-01-10T19:55:31.486Z,9.6
2023-01-10T19:56:39.868Z,9.6
2023-01-10T19:57:48.417Z,10.7
2023-01-10T19:58:56.798Z,10.7
2023-01-10T20:00:05.143Z,10.7
2023-01-10T20:01:13.735Z,14.3
2023-01-10T20:02:22.083Z,14.3
2023-01-10T20:03:30.426Z,14.3
2023-01-10T20:04:38.970Z,10.8
2023-01-10T20:05:47.316Z,10.8
2023-01-10T20:06:55.737Z,10.8
2023-01-10T20:08:04.229Z,13.2
2023-01-10T20:09:12.574Z,13.2
2023-01-10T20:10:20.968Z,13.2
2023-01-10T20:11:29.482Z,11.7
2023-01-10T20:12:37.915Z,11.7
2023-01-10T20:13:46.276Z,11.7
2023-01-10T20:14:54.811Z,11.5
2023-01-10T20:16:03.329Z,11.5
2023-01-10T20:17:11.524Z,11.5
2023-01-10T20:18:20.071Z,14
2023-01-10T20:19:28.424Z,14
2023-01-10T20:20:36.761Z,14
2023-01-10T20:21:45.323Z,11.6
2023-01-10T20:22:53.711Z,11.6
2023-01-10T20:24:02.067Z,11.6
2023-01-10T20:25:10.615Z,10.4
2023-01-10T20:26:18.953Z,10.4
2023-01-10T20:27:27.281Z,10.4
2023-01-10T20:28:35.849Z,9.2
2023-01-10T20:29:44.236Z,9.2
2023-01-10T20:30:52.651Z,9.2
2023-01-10T20:32:01.157Z,12.6
2023-01-10T20:33:09.500Z,12.6
2023-01-10T20:34:17.842Z,12.6
2023-01-10T20:35:26.427Z,7
2023-01-10T20:36:34.758Z,7
2023-01-10T20:37:43.123Z,7
2023-01-10T20:38:51.710Z,12
2023-01-10T20:40:00.052Z,12
2023-01-10T20:41:08.403Z,12
2023-01-10T20:42:16.957Z,10.8
2023-01-10T20:43:25.310Z,10.8
2023-01-10T20:44:33.648Z,10.8
2023-01-10T20:45:42.215Z,12.7
2023-01-10T20:46:50.904Z,12.7
2023-01-10T20:47:59.161Z,12.7
2023-01-10T20:49:07.775Z,11
2023-01-10T20:50:16.240Z,11
2023-01-10T20:51:24.768Z,11
2023-01-10T20:52:33.344Z,12.3
2023-01-10T20:53:41.691Z,12.3
2023-01-10T20:54:50.077Z,12.3
2023-01-10T20:56:00.129Z,8.3
2023-01-10T20:57:06.980Z,8.3
2023-01-10T20:58:15.360Z,8.3
2023-01-10T20:59:25.853Z,10.2
2023-01-10T21:00:32.281Z,10.2
2023-01-10T21:01:40.698Z,10.2
2023-01-10T21:02:49.217Z,8.9
2023-01-10T21:03:57.560Z,8.9
2023-01-10T21:05:05.903Z,8.9
2023-01-10T21:06:14.469Z,10.4
2023-01-10T21:07:22.811Z,10.4
2023-01-10T21:08:31.189Z,10.4
2023-01-10T21:09:39.744Z,8.5
2023-01-10T21:10:48.134Z,8.5
2023-01-10T21:12:07.287Z,8.5
2023-01-10T21:13:05.037Z,11.1
2023-01-10T21:14:13.364Z,11.1
2023-01-10T21:15:21.720Z,11.1
2023-01-10T21:16:30.306Z,8.8
2023-01-10T21:17:38.652Z,8.8
2023-01-10T21:18:46.988Z,8.8
2023-01-10T21:19:55.556Z,8.8
2023-01-10T21:21:03.924Z,8.8
2023-01-10T21:22:12.269Z,8.8
2023-01-10T21:23:20.823Z,7
2023-01-10T21:24:29.201Z,7
2023-01-10T21:25:37.576Z,7
2023-01-10T21:26:46.141Z,7.5
2023-01-10T21:27:54.511Z,7.5
2023-01-10T21:29:02.899Z,7.5
2023-01-10T21:30:11.455Z,8.6
2023-01-10T21:31:19.908Z,8.6
2023-01-10T21:32:28.157Z,8.6
2023-01-10T21:33:36.724Z,10.2
2023-01-10T21:34:45.104Z,10.2
2023-01-10T21:35:53.450Z,10.2
2023-01-10T21:37:02.012Z,6.9
2023-01-10T21:38:10.384Z,6.9
2023-01-10T21:39:18.731Z,6.9
2023-01-10T21:40:27.290Z,10.8
2023-01-10T21:41:35.742Z,10.8
2023-01-10T21:42:44.013Z,10.8
2023-01-10T21:43:52.552Z,10.6
2023-01-10T21:45:00.898Z,10.6
2023-01-10T21:46:09.251Z,10.6
2023-01-10T21:47:17.887Z,7.4
2023-01-10T21:48:26.295Z,7.4
2023-01-10T21:49:34.692Z,7.4
2023-01-10T21:50:43.278Z,8.2
2023-01-10T21:51:51.653Z,8.2
2023-01-10T21:53:00.094Z,8.2
2023-01-10T21:54:08.633Z,6.8
2023-01-10T21:55:17.033Z,6.8
2023-01-10T21:56:25.378Z,6.8
2023-01-10T21:57:33.951Z,5.6
2023-01-10T21:58:42.328Z,5.6
2023-01-10T21:59:50.675Z,5.6
2023-01-10T22:00:59.381Z,6.6
2023-01-10T22:02:07.640Z,6.6
2023-01-10T22:03:16.023Z,6.6
2023-01-10T22:04:24.614Z,5.8
2023-01-10T22:05:32.959Z,5.8
2023-01-10T22:06:41.413Z,5.8
2023-01-10T22:07:49.899Z,7
2023-01-10T22:08:58.251Z,7
2023-01-10T22:10:06.597Z,7
2023-01-10T22:11:15.171Z,6.5
2023-01-10T22:12:23.548Z,6.5
2023-01-10T22:13:31.955Z,6.5
2023-01-10T22:14:40.617Z,7.1
2023-01-10T22:15:48.989Z,7.1
2023-01-10T22:16:57.325Z,7.1
2023-01-10T22:18:05.906Z,6.1
2023-01-10T22:19:14.277Z,6.1
2023-01-10T22:20:22.635Z,6.1
2023-01-10T22:21:31.232Z,4.9
2023-01-10T22:22:39.637Z,4.9
2023-01-10T22:23:47.997Z,4.9
2023-01-10T22:24:56.562Z,5.6
2023-01-10T22:26:04.965Z,5.6
2023-01-10T22:27:13.403Z,5.6
2023-01-10T22:28:21.968Z,5.1
2023-01-10T22:29:30.365Z,5.1
2023-01-10T22:30:38.796Z,5.1
2023-01-10T22:31:47.433Z,3.7
2023-01-10T22:32:55.769Z,3.7
2023-01-10T22:34:04.149Z,3.7
2023-01-10T22:35:12.707Z,6.3
2023-01-10T22:36:21.053Z,6.3
2023-01-10T22:37:29.443Z,6.3
2023-01-10T22:38:38.039Z,6.9
2023-01-10T22:39:48.399Z,6.9
2023-01-10T22:40:54.789Z,6.9
2023-01-10T22:42:03.346Z,6
2023-01-10T22:43:11.744Z,6
2023-01-10T22:44:20.927Z,6
2023-01-10T22:45:29.497Z,5.9
2023-01-10T22:46:37.880Z,5.9
2023-01-10T22:47:46.248Z,5.9
2023-01-10T22:48:54.848Z,7.4
2023-01-10T22:50:03.190Z,7.4
2023-01-10T22:51:11.571Z,7.4
2023-01-10T22:52:20.133Z,6.9
2023-01-10T22:53:28.495Z,6.9
2023-01-10T22:54:36.873Z,6.9
2023-01-10T22:55:45.434Z,7.3
2023-01-10T22:56:53.778Z,7.3
2023-01-10T22:58:02.153Z,7.3
2023-01-10T22:59:10.738Z,5
2023-01-10T23:00:19.103Z,5
2023-01-10T23:01:27.470Z,5
2023-01-10T23:02:36.166Z,6.6
2023-01-10T23:03:44.442Z,6.6
2023-01-10T23:04:52.851Z,6.6
2023-01-10T23:06:01.400Z,6.9
2023-01-10T23:07:09.757Z,6.9
2023-01-10T23:08:18.113Z,6.9
2023-01-10T23:09:26.679Z,5.9
2023-01-10T23:10:35.017Z,5.9
2023-01-10T23:11:43.370Z,5.9
2023-01-10T23:12:51.936Z,5.1
2023-01-10T23:14:00.295Z,5.1
2023-01-10T23:15:08.667Z,5.1
2023-01-10T23:16:17.330Z,7.1
2023-01-10T23:17:25.659Z,7.1
2023-01-10T23:18:34.077Z,7.1
2023-01-10T23:19:42.600Z,6.9
2023-01-10T23:20:51.002Z,6.9
2023-01-10T23:21:59.391Z,6.9
2023-01-10T23:23:08.032Z,5.9
2023-01-10T23:24:16.435Z,5.9
2023-01-10T23:25:24.774Z,5.9
2023-01-10T23:26:33.335Z,7.3
2023-01-10T23:27:41.739Z,7.3
2023-01-10T23:28:50.133Z,7.3
2023-01-10T23:29:58.660Z,5.1
2023-01-10T23:31:07.047Z,5.1
2023-01-10T23:32:15.376Z,5.1
2023-01-10T23:33:23.952Z,7.1
2023-01-10T23:34:32.307Z,7.1
2023-01-10T23:35:40.648Z,7.1
2023-01-10T23:36:49.219Z,4.6
2023-01-10T23:37:57.580Z,4.6
2023-01-10T23:39:05.969Z,4.6
2023-01-10T23:40:14.522Z,6.9
2023-01-10T23:41:22.887Z,6.9
2023-01-10T23:42:31.244Z,6.9
2023-01-10T23:43:39.858Z,6.5
2023-01-10T23:44:48.212Z,6.5
2023-01-10T23:45:56.639Z,6.5
2023-01-10T23:47:05.218Z,7.7
2023-01-10T23:48:13.642Z,7.7
2023-01-10T23:49:21.954Z,7.7
2023-01-10T23:50:30.610Z,7.1
2023-01-10T23:51:38.931Z,7.1
2023-01-10T23:52:47.466Z,7.1
2023-01-10T23:53:56.042Z,8.1
2023-01-10T23:55:04.400Z,8.1
2023-01-10T23:56:12.766Z,8.1
2023-01-10T23:57:21.326Z,7.7
2023-01-10T23:58:29.694Z,7.7
2023-01-10T23:59:38.065Z,7.7
